Time;durP1;ratioP1;P1;durP2;ratioP2;P2;SDS_P1;SDS_P2;PMS_P1;PMS_P2;Temp;Humidity;BMP_temperature;BMP_pressure;BME280_temperature;BME280_humidity;BME280_pressure;Samples;Min_cycle;Max_cycle;Signal;HPM_P1;HPM_P2
2022/05/02 00:00:54;;;;;;;25.80;12.90;;;;;;;8.03;60.92;100587.67;105442;1276;24327;-64
2022/05/02 00:03:26;;;;;;;30.20;14.30;;;;;;;7.80;61.97;100587.55;105493;1276;22536;-66
2022/05/02 00:05:57;;;;;;;29.70;13.50;;;;;;;7.55;62.36;100582.84;105669;1278;22612;-65
2022/05/02 00:08:30;;;;;;;28.80;13.60;;;;;;;7.43;62.32;100581.84;105573;1278;25332;-64
2022/05/02 00:11:01;;;;;;;26.70;13.20;;;;;;;7.36;62.53;100575.85;105515;1276;22608;-65
2022/05/02 00:13:33;;;;;;;32.40;13.40;;;;;;;7.32;62.50;100574.73;105520;1276;22643;-64
2022/05/02 00:16:06;;;;;;;25.90;12.90;;;;;;;7.28;62.64;100578.18;105460;1276;25689;-64
2022/05/02 00:18:38;;;;;;;30.60;14.10;;;;;;;7.25;62.71;100575.91;105593;1277;22572;-63
2022/05/02 00:21:10;;;;;;;29.20;13.70;;;;;;;7.24;62.52;100577.71;105473;1278;23315;-64
2022/05/02 00:23:41;;;;;;;27.40;13.00;;;;;;;7.25;62.25;100570.45;105490;1276;24600;-63
2022/05/02 00:26:13;;;;;;;28.40;11.70;;;;;;;7.27;62.07;100568.17;105433;1275;22617;-63
2022/05/02 00:28:44;;;;;;;32.90;14.30;;;;;;;7.27;62.31;100563.15;105523;1276;24418;-64
2022/05/02 00:31:16;;;;;;;30.20;12.90;;;;;;;7.25;62.35;100563.01;105426;1278;25251;-64
2022/05/02 00:33:48;;;;;;;28.10;13.30;;;;;;;7.22;62.37;100560.73;105495;1277;25563;-64
2022/05/02 00:36:20;;;;;;;30.40;13.60;;;;;;;7.20;62.57;100562.92;105472;1276;22550;-64
2022/05/02 00:38:52;;;;;;;28.60;12.20;;;;;;;7.19;62.30;100562.97;105526;1278;22994;-63
2022/05/02 00:41:23;;;;;;;29.20;12.80;;;;;;;7.19;62.10;100561.93;105493;1277;26541;-64
2022/05/02 00:43:57;;;;;;;29.40;12.80;;;;;;;7.18;62.28;100561.19;105454;1276;24406;-64
2022/05/02 00:46:29;;;;;;;24.30;12.10;;;;;;;7.15;62.48;100558.09;105466;1276;24362;-64
2022/05/02 00:49:00;;;;;;;27.90;13.10;;;;;;;7.12;62.38;100560.59;105667;1278;22567;-65
2022/05/02 00:51:32;;;;;;;28.20;12.40;;;;;;;7.09;62.31;100561.23;105495;1276;22690;-66
2022/05/02 00:54:04;;;;;;;28.10;12.70;;;;;;;7.07;62.36;100563.23;105653;1278;22559;-63
2022/05/02 00:56:35;;;;;;;27.40;13.30;;;;;;;7.05;62.48;100560.83;105410;1276;22620;-64
2022/05/02 00:59:09;;;;;;;28.50;12.70;;;;;;;7.02;62.61;100560.13;105456;1278;23307;-64
2022/05/02 01:01:41;;;;;;;26.60;12.40;;;;;;;7.00;62.29;100561.30;105527;1277;22537;-64
2022/05/02 01:04:13;;;;;;;27.20;12.40;;;;;;;6.99;62.53;100565.21;105511;1278;24252;-64
2022/05/02 01:09:37;;;;;;;24.90;11.40;;;;;;;6.91;62.37;100557.08;105428;1278;25258;-65
2022/05/02 01:12:14;;;;;;;30.90;12.90;;;;;;;6.90;62.36;100559.60;105492;1278;25358;-65
2022/05/02 01:14:47;;;;;;;27.10;12.20;;;;;;;6.88;62.51;100556.64;105674;1277;22559;-65
2022/05/02 01:17:18;;;;;;;29.40;12.70;;;;;;;6.83;62.86;100554.40;105544;1276;22687;-64
2022/05/02 01:19:51;;;;;;;25.20;11.50;;;;;;;6.79;62.61;100552.10;105651;1276;22800;-64
2022/05/02 01:22:23;;;;;;;30.10;13.00;;;;;;;6.75;62.67;100552.70;105513;1278;22571;-64
2022/05/02 01:24:55;;;;;;;27.30;11.40;;;;;;;6.72;62.71;100551.45;105420;1278;24394;-63
2022/05/02 01:27:27;;;;;;;25.40;12.10;;;;;;;6.67;62.88;100547.56;105710;1276;22537;-64
2022/05/02 01:29:59;;;;;;;26.70;12.10;;;;;;;6.61;63.07;100547.44;105505;1276;24442;-64
2022/05/02 01:32:30;;;;;;;28.30;13.10;;;;;;;6.54;63.04;100548.69;105397;1278;22553;-64
2022/05/02 01:35:02;;;;;;;28.00;11.30;;;;;;;6.50;63.14;100550.16;105494;1276;22583;-64
2022/05/02 01:37:34;;;;;;;26.00;11.80;;;;;;;6.45;63.34;100547.64;105474;1276;22560;-65
2022/05/02 01:40:06;;;;;;;29.60;11.70;;;;;;;6.39;63.36;100545.96;105523;1279;25259;-63
2022/05/02 01:42:39;;;;;;;25.40;11.40;;;;;;;6.36;63.31;100546.54;105436;1278;22527;-64
2022/05/02 01:45:13;;;;;;;28.30;12.90;;;;;;;6.33;63.36;100543.02;105565;1276;22556;-65
2022/05/02 01:47:44;;;;;;;23.70;11.10;;;;;;;6.31;63.33;100546.96;105525;1276;25299;-64
2022/05/02 01:50:15;;;;;;;26.60;10.60;;;;;;;6.28;63.59;100543.23;105586;1276;22546;-63
2022/05/02 01:52:47;;;;;;;27.20;11.60;;;;;;;6.25;63.54;100543.80;105505;1276;25537;-63
2022/05/02 01:55:18;;;;;;;28.00;13.60;;;;;;;6.22;63.69;100544.59;105483;1277;25576;-63
2022/05/02 01:57:50;;;;;;;27.60;12.70;;;;;;;6.20;63.54;100540.80;105420;1278;25266;-64
2022/05/02 02:00:22;;;;;;;24.00;10.70;;;;;;;6.17;63.59;100542.30;105479;1278;22551;-65
2022/05/02 02:02:54;;;;;;;30.30;12.80;;;;;;;6.15;63.55;100541.81;105441;1276;22549;-63
2022/05/02 02:08:21;;;;;;;27.90;11.00;;;;;;;6.08;64.12;100538.84;105378;1279;26518;-62
2022/05/02 02:10:54;;;;;;;27.70;12.40;;;;;;;6.04;64.14;100536.73;105480;1278;23018;-63
2022/05/02 02:13:27;;;;;;;28.90;11.90;;;;;;;6.00;64.30;100538.45;105592;1276;22573;-64
2022/05/02 02:15:59;;;;;;;34.70;13.60;;;;;;;5.95;64.42;100534.18;105483;1278;22788;-64
2022/05/02 02:18:31;;;;;;;28.50;12.10;;;;;;;5.91;64.42;100536.28;105409;1278;22697;-63
2022/05/02 02:21:02;;;;;;;27.10;12.00;;;;;;;5.89;64.19;100538.86;105560;1276;22581;-64
2022/05/02 02:23:34;;;;;;;29.10;12.00;;;;;;;5.88;64.31;100536.27;105517;1276;22536;-62
2022/05/02 02:26:07;;;;;;;31.40;11.70;;;;;;;5.88;64.67;100537.55;105472;1276;25103;-63
2022/05/02 02:28:40;;;;;;;26.40;12.00;;;;;;;5.86;64.37;100535.39;105566;1278;25817;-64
2022/05/02 02:31:12;;;;;;;30.30;12.60;;;;;;;5.84;64.53;100535.73;105522;1278;26878;-63
2022/05/02 02:33:44;;;;;;;28.10;11.60;;;;;;;5.82;64.92;100541.18;105382;1279;24245;-63
2022/05/02 02:36:16;;;;;;;32.70;13.60;;;;;;;5.76;65.49;100547.45;105517;1276;24359;-63
2022/05/02 02:38:48;;;;;;;33.60;14.00;;;;;;;5.66;65.78;100550.10;105506;1276;22606;-64
2022/05/02 02:41:19;;;;;;;30.80;13.40;;;;;;;5.62;65.83;100543.23;105437;1278;23196;-64
2022/05/02 02:43:51;;;;;;;28.90;12.40;;;;;;;5.60;65.56;100537.43;105576;1276;25489;-63
2022/05/02 02:46:22;;;;;;;30.90;13.40;;;;;;;5.61;65.40;100537.23;105524;1276;25213;-62
2022/05/02 02:48:54;;;;;;;31.10;13.70;;;;;;;5.61;65.85;100540.64;105533;1278;22583;-63
2022/05/02 02:51:25;;;;;;;34.80;13.40;;;;;;;5.57;66.17;100544.42;105539;1278;22632;-63
2022/05/02 02:53:57;;;;;;;27.00;11.70;;;;;;;5.54;66.10;100542.83;105607;1276;24453;-63
2022/05/02 02:56:28;;;;;;;31.90;13.90;;;;;;;5.51;66.62;100540.23;105605;1277;22750;-63
2022/05/02 02:59:00;;;;;;;28.40;12.40;;;;;;;5.45;66.60;100546.00;105550;1276;22605;-63
2022/05/02 03:01:35;;;;;;;27.20;12.60;;;;;;;5.42;66.61;100541.19;105501;1278;23118;-63
2022/05/02 03:06:53;;;;;;;27.10;11.80;;;;;;;5.41;66.52;100541.29;105383;1278;25424;-63
2022/05/02 03:09:24;;;;;;;32.30;12.20;;;;;;;5.36;66.81;100539.77;105716;1276;22544;-62
2022/05/02 03:11:56;;;;;;;31.90;14.60;;;;;;;5.29;67.69;100540.67;105490;1273;22569;-62
2022/05/02 03:14:27;;;;;;;34.30;15.50;;;;;;;5.19;68.05;100546.47;105588;1278;24402;-62
2022/05/02 03:16:59;;;;;;;36.30;14.40;;;;;;;5.13;68.13;100544.55;105425;1276;22544;-62
2022/05/02 03:19:31;;;;;;;31.80;13.70;;;;;;;5.10;68.26;100544.48;105489;1279;24338;-62
2022/05/02 03:22:02;;;;;;;32.50;14.80;;;;;;;5.07;68.19;100548.27;105670;1278;22542;-63
2022/05/02 03:24:35;;;;;;;32.30;13.50;;;;;;;5.02;68.55;100546.98;105624;1277;24231;-63
2022/05/02 03:27:07;;;;;;;32.80;15.50;;;;;;;4.96;68.48;100550.77;105523;1278;25304;-62
2022/05/02 03:29:39;;;;;;;30.50;13.10;;;;;;;4.93;68.32;100548.70;105351;1278;24317;-63
2022/05/02 03:32:13;;;;;;;26.50;12.80;;;;;;;4.94;68.49;100545.67;105520;1278;22678;-63
2022/05/02 03:34:44;;;;;;;29.80;13.30;;;;;;;4.93;68.44;100547.35;105386;1278;22554;-62
2022/05/02 03:37:15;;;;;;;28.70;13.60;;;;;;;4.93;67.98;100542.55;105370;1277;23002;-62
2022/05/02 03:39:47;;;;;;;28.80;14.00;;;;;;;4.95;68.19;100545.81;105684;1276;26607;-63
2022/05/02 03:42:19;;;;;;;29.70;14.20;;;;;;;4.94;68.18;100547.64;105545;1278;22535;-63
2022/05/02 03:44:51;;;;;;;31.20;13.90;;;;;;;4.94;68.10;100547.27;105580;1276;22534;-63
2022/05/02 03:47:23;;;;;;;24.90;13.40;;;;;;;4.94;68.15;100547.16;105411;1278;24268;-63
2022/05/02 03:49:54;;;;;;;29.30;14.30;;;;;;;4.96;67.95;100549.91;105508;1278;25263;-62
2022/05/02 03:52:26;;;;;;;27.20;11.90;;;;;;;4.98;67.79;100551.29;105487;1276;24282;-62
2022/05/02 03:54:57;;;;;;;30.90;13.50;;;;;;;5.00;67.95;100553.05;105591;1276;25263;-62
2022/05/02 03:57:29;;;;;;;30.40;13.40;;;;;;;5.00;68.35;100555.95;105638;1276;25477;-62
2022/05/02 04:00:00;;;;;;;37.40;15.00;;;;;;;4.99;68.90;100560.11;105592;1276;22537;-62
2022/05/02 04:02:31;;;;;;;31.70;14.20;;;;;;;4.98;69.12;100561.08;105717;1278;22564;-62
2022/05/02 04:05:03;;;;;;;34.70;15.20;;;;;;;4.98;69.37;100565.52;105575;1278;24302;-62
2022/05/02 04:07:35;;;;;;;36.50;15.80;;;;;;;4.99;68.83;100564.94;105741;1276;25541;-62
2022/05/02 04:10:08;;;;;;;30.70;13.90;;;;;;;5.01;69.21;100564.10;105635;1275;24961;-63
2022/05/02 04:12:42;;;;;;;28.10;14.30;;;;;;;5.02;69.13;100568.17;105743;1276;24251;-62
2022/05/02 04:15:14;;;;;;;30.80;14.80;;;;;;;5.04;69.22;100568.84;105518;1275;22700;-63
2022/05/02 04:17:46;;;;;;;29.20;13.90;;;;;;;5.06;69.67;100567.27;105586;1276;22624;-63
2022/05/02 04:20:17;;;;;;;28.30;13.60;;;;;;;5.09;69.42;100566.02;105447;1276;22534;-62
2022/05/02 04:22:49;;;;;;;30.90;14.00;;;;;;;5.13;69.27;100562.11;105553;1277;24373;-62
2022/05/02 04:25:20;;;;;;;29.70;11.00;;;;;;;5.17;68.97;100560.27;105389;1276;22557;-62
2022/05/02 04:27:52;;;;;;;30.90;12.40;;;;;;;5.22;69.07;100560.46;105723;1277;23226;-63
2022/05/02 04:30:24;;;;;;;28.00;12.30;;;;;;;5.27;69.09;100557.95;105430;1278;24901;-62
2022/05/02 04:32:57;;;;;;;28.20;12.90;;;;;;;5.33;69.76;100557.88;105643;1276;22541;-61
2022/05/02 04:35:29;;;;;;;28.70;12.30;;;;;;;5.39;69.39;100558.98;105414;1278;23952;-63
2022/05/02 04:38:01;;;;;;;27.80;13.40;;;;;;;5.46;70.38;100561.00;105618;1276;22547;-62
2022/05/02 04:40:32;;;;;;;35.50;14.50;;;;;;;5.53;70.61;100559.55;105536;1275;24308;-62
2022/05/02 04:43:04;;;;;;;33.00;15.30;;;;;;;5.61;71.09;100560.27;105547;1276;22567;-62
2022/05/02 04:45:36;;;;;;;29.80;13.90;;;;;;;5.70;71.32;100559.71;105594;1275;26602;-62
2022/05/02 04:48:09;;;;;;;30.00;14.60;;;;;;;5.79;71.09;100557.58;105512;1276;24316;-62
2022/05/02 04:50:40;;;;;;;30.20;15.10;;;;;;;5.87;71.61;100558.30;105584;1276;24344;-62
2022/05/02 04:53:13;;;;;;;31.80;14.20;;;;;;;6.00;72.01;100557.88;105444;1275;25229;-62
2022/05/02 04:55:44;;;;;;;31.30;13.70;;;;;;;6.11;72.51;100555.94;105410;1276;22778;-62
2022/05/02 04:58:17;;;;;;;31.90;15.30;;;;;;;6.24;72.82;100557.13;105508;1275;24434;-62
2022/05/02 05:00:49;;;;;;;27.20;12.90;;;;;;;6.37;72.90;100559.18;105532;1276;22560;-63
2022/05/02 05:03:22;;;;;;;29.60;14.20;;;;;;;6.52;73.26;100558.10;105533;1276;23767;-61
2022/05/02 05:05:57;;;;;;;36.50;13.80;;;;;;;6.68;73.32;100556.66;105512;1276;22624;-62
2022/05/02 05:08:31;;;;;;;27.80;14.00;;;;;;;6.81;73.46;100557.65;105893;1276;25816;-62
2022/05/02 05:11:12;;;;;;;31.40;14.50;;;;;;;6.97;73.81;100553.93;105564;1276;22533;-61
2022/05/02 05:16:57;;;;;;;32.20;13.90;;;;;;;7.27;74.52;100561.08;105419;1276;24336;-62
2022/05/02 05:19:44;;;;;;;30.20;15.00;;;;;;;7.40;74.42;100559.15;105436;1276;28128;-62
2022/05/02 05:22:23;;;;;;;28.60;12.80;;;;;;;7.53;74.44;100560.94;105658;1276;22703;-63
2022/05/02 05:25:15;;;;;;;26.40;13.20;;;;;;;7.62;74.27;100560.89;105691;1276;25330;-63
2022/05/02 05:28:00;;;;;;;28.50;14.10;;;;;;;7.74;74.21;100561.89;105547;1275;22532;-63
2022/05/02 05:30:46;;;;;;;34.40;13.40;;;;;;;7.85;74.33;100561.09;105772;1276;25378;-63
2022/05/02 05:33:41;;;;;;;33.60;12.50;;;;;;;7.97;74.43;100556.29;105967;1275;22636;-63
2022/05/02 05:36:22;;;;;;;27.40;11.90;;;;;;;8.08;74.35;100555.54;105570;1275;22614;-63
2022/05/02 05:39:00;;;;;;;29.70;12.90;;;;;;;8.20;74.19;100558.98;105479;1277;25329;-62
2022/05/02 05:41:46;;;;;;;29.10;13.30;;;;;;;8.32;74.08;100554.91;105453;1276;24337;-62
2022/05/02 05:44:30;;;;;;;31.90;13.00;;;;;;;8.45;73.74;100553.84;105616;1276;25471;-61
2022/05/02 05:47:18;;;;;;;30.20;12.20;;;;;;;8.60;73.04;100557.23;105763;1278;22694;-62
2022/05/02 05:50:02;;;;;;;33.90;12.00;;;;;;;8.73;72.66;100551.60;105562;1276;22551;-62
2022/05/02 05:52:46;;;;;;;31.90;12.30;;;;;;;8.86;72.26;100551.30;105614;1276;22578;-62
2022/05/02 05:55:29;;;;;;;28.80;12.80;;;;;;;8.99;72.06;100552.20;105632;1275;22537;-62
2022/05/02 05:58:10;;;;;;;28.90;12.60;;;;;;;9.11;71.70;100551.84;105505;1276;26194;-62
2022/05/02 06:00:47;;;;;;;28.90;12.00;;;;;;;9.24;71.85;100554.57;105485;1277;22528;-62
2022/05/02 06:03:25;;;;;;;31.00;11.70;;;;;;;9.36;71.20;100556.63;105637;1277;22562;-62
2022/05/02 06:05:57;;;;;;;30.10;11.50;;;;;;;9.44;70.00;100560.09;105703;1278;22535;-62
2022/05/02 06:08:30;;;;;;;22.20;10.70;;;;;;;9.51;69.63;100566.54;105872;1278;22749;-62
2022/05/02 06:11:03;;;;;;;27.60;10.90;;;;;;;9.58;69.39;100571.28;105547;1276;22768;-63
2022/05/02 06:13:35;;;;;;;25.80;11.00;;;;;;;9.64;68.92;100571.50;105431;1276;22573;-63
2022/05/02 06:19:00;;;;;;;26.90;10.10;;;;;;;9.80;68.94;100575.89;105414;1278;22612;-62
2022/05/02 06:21:32;;;;;;;26.40;11.10;;;;;;;9.88;68.73;100568.26;105516;1276;22554;-62
2022/05/02 06:24:11;;;;;;;24.50;9.40;;;;;;;9.96;68.42;100569.43;105460;1276;22679;-63
2022/05/02 06:26:44;;;;;;;21.70;10.40;;;;;;;10.02;68.08;100565.85;105428;1278;22631;-62
2022/05/02 06:29:16;;;;;;;27.30;10.90;;;;;;;10.11;67.68;100569.20;105420;1278;24390;-62
2022/05/02 06:31:52;;;;;;;25.00;10.30;;;;;;;10.21;67.80;100570.43;105478;1278;24626;-63
2022/05/02 06:34:27;;;;;;;25.00;10.50;;;;;;;10.32;66.96;100572.79;105578;1276;22552;-63
2022/05/02 06:37:20;;;;;;;24.20;11.10;;;;;;;10.41;66.70;100570.29;105611;1277;25377;-62
2022/05/02 06:40:03;;;;;;;24.00;10.70;;;;;;;10.52;66.76;100566.81;105595;1277;22711;-63
2022/05/02 06:42:40;;;;;;;23.40;9.30;;;;;;;10.63;66.26;100567.45;107282;1276;25314;-64
2022/05/02 06:45:28;;;;;;;21.50;9.40;;;;;;;10.72;65.82;100569.64;105456;1277;22564;-64
2022/05/02 06:48:24;;;;;;;22.10;9.70;;;;;;;10.80;65.40;100573.86;105518;1277;24282;-63
2022/05/02 06:51:04;;;;;;;21.30;9.60;;;;;;;10.88;64.98;100582.41;105554;1276;22535;-63
2022/05/02 06:54:05;;;;;;;24.60;10.80;;;;;;;10.96;64.96;100579.71;105568;1278;23544;-62
2022/05/02 06:56:45;;;;;;;23.80;10.00;;;;;;;11.06;64.75;100578.81;105428;1277;22785;-63
2022/05/02 06:59:40;;;;;;;23.00;10.10;;;;;;;11.15;64.27;100581.95;105551;1278;22531;-63
2022/05/02 07:02:40;;;;;;;26.00;10.90;;;;;;;11.22;64.56;100579.93;105463;1277;22761;-63
2022/05/02 07:05:21;;;;;;;25.50;10.10;;;;;;;11.30;65.37;100577.52;105534;1277;22529;-63
2022/05/02 07:08:05;;;;;;;22.70;10.00;;;;;;;11.36;65.22;100578.61;105499;1277;22809;-62
2022/05/02 07:10:38;;;;;;;28.40;12.30;;;;;;;11.43;65.19;100584.60;105539;1277;22553;-65
2022/05/02 07:13:29;;;;;;;24.10;9.60;;;;;;;11.48;65.07;100582.30;105507;1276;22677;-63
2022/05/02 07:16:17;;;;;;;24.10;11.40;;;;;;;11.54;65.11;100580.51;105367;1277;22679;-64
2022/05/02 07:19:05;;;;;;;23.60;10.90;;;;;;;11.62;64.92;100581.79;105463;1277;25274;-64
2022/05/02 07:21:51;;;;;;;23.80;10.50;;;;;;;11.70;64.73;100579.33;105512;1277;22801;-63
2022/05/02 07:24:39;;;;;;;22.90;10.00;;;;;;;11.81;64.42;100580.60;105711;1276;25572;-63
2022/05/02 07:27:22;;;;;;;27.90;11.10;;;;;;;11.87;63.69;100580.65;105605;1278;22623;-64
2022/05/02 07:29:58;;;;;;;27.70;11.00;;;;;;;11.95;63.77;100579.41;105592;1277;25293;-64
2022/05/02 07:32:33;;;;;;;27.20;11.40;;;;;;;12.05;63.30;100581.39;105553;1277;22722;-64
2022/05/02 07:35:08;;;;;;;27.20;10.60;;;;;;;12.12;63.16;100581.31;105502;1278;24239;-62
2022/05/02 07:37:43;;;;;;;26.50;11.20;;;;;;;12.20;62.75;100579.24;105512;1278;25381;-63
2022/05/02 07:40:19;;;;;;;26.40;11.40;;;;;;;12.24;62.33;100579.48;105490;1277;22616;-63
2022/05/02 07:42:52;;;;;;;25.70;10.90;;;;;;;12.30;62.61;100584.30;105650;1277;22566;-63
2022/05/02 07:45:29;;;;;;;25.60;11.10;;;;;;;12.36;62.26;100581.77;105456;1278;22573;-63
2022/05/02 07:48:04;;;;;;;26.20;12.00;;;;;;;12.44;62.10;100582.00;105785;1277;25263;-63
2022/05/02 07:50:37;;;;;;;27.10;12.10;;;;;;;12.52;62.06;100587.29;105599;1277;23177;-63
2022/05/02 07:53:11;;;;;;;27.10;11.10;;;;;;;12.62;62.02;100583.47;105621;1278;24362;-63
2022/05/02 07:55:47;;;;;;;26.20;10.80;;;;;;;12.74;61.83;100580.42;105578;1277;26313;-64
2022/05/02 07:58:20;;;;;;;24.40;10.00;;;;;;;12.85;61.50;100578.29;105533;1278;24259;-63
2022/05/02 08:00:52;;;;;;;23.80;10.30;;;;;;;12.95;61.34;100583.58;105552;1277;26531;-63
2022/05/02 08:03:27;;;;;;;22.30;10.50;;;;;;;13.06;61.05;100584.83;105650;1278;25281;-63
2022/05/02 08:06:06;;;;;;;22.70;10.10;;;;;;;13.16;60.67;100582.95;105551;1277;25382;-64
2022/05/02 08:08:50;;;;;;;24.30;10.10;;;;;;;13.27;60.20;100581.83;105707;1278;22570;-64
2022/05/02 08:11:31;;;;;;;19.80;9.00;;;;;;;13.39;60.23;100586.41;105439;1278;22679;-63
2022/05/02 08:14:14;;;;;;;21.10;9.30;;;;;;;13.51;60.09;100588.31;105461;1277;25504;-63
2022/05/02 08:16:54;;;;;;;19.70;9.60;;;;;;;13.63;59.89;100582.39;105516;1278;24109;-63
2022/05/02 08:19:33;;;;;;;;;;;;;;;13.75;58.99;100583.45;105727;1277;23233;-63
2022/05/02 08:28:26;;;;;;;22.20;8.90;;;;;;;14.11;58.48;100577.20;105520;1277;22682;-63
2022/05/02 08:31:03;;;;;;;25.40;9.70;;;;;;;14.23;58.12;100577.36;105608;1277;25347;-63
2022/05/02 08:33:37;;;;;;;23.10;8.80;;;;;;;14.32;58.16;100577.02;105633;1277;22941;-63
2022/05/02 08:36:14;;;;;;;22.40;9.10;;;;;;;14.44;57.90;100577.09;105511;1278;24268;-63
2022/05/02 08:39:00;;;;;;;19.40;8.80;;;;;;;14.56;57.46;100573.52;105532;1278;22553;-63
2022/05/02 08:41:59;;;;;;;21.60;8.80;;;;;;;14.67;57.23;100568.59;105687;1277;22541;-64
2022/05/02 08:45:05;;;;;;;23.70;9.30;;;;;;;14.75;56.57;100570.54;105452;1277;22872;-64
2022/05/02 08:48:16;;;;;;;21.30;8.30;;;;;;;14.87;56.83;100562.44;105400;1278;25513;-65
2022/05/02 08:51:20;;;;;;;17.20;7.50;;;;;;;15.01;56.19;100560.59;105617;1277;25261;-64
2022/05/02 08:54:18;;;;;;;18.50;8.30;;;;;;;15.12;55.48;100558.61;105476;1277;26536;-64
2022/05/02 08:57:16;;;;;;;21.70;8.10;;;;;;;15.18;55.76;100557.82;105527;1277;22551;-64
2022/05/02 09:00:11;;;;;;;23.40;8.10;;;;;;;15.27;55.37;100555.67;105511;1277;22534;-64
2022/05/02 09:03:13;;;;;;;23.60;8.50;;;;;;;15.37;55.18;100555.36;105605;1277;24395;-64
2022/05/02 09:06:02;;;;;;;21.40;8.70;;;;;;;15.43;55.19;100555.88;105544;1277;24445;-64
2022/05/02 09:09:10;;;;;;;21.90;7.80;;;;;;;15.49;55.01;100553.91;105593;1277;22560;-65
2022/05/02 09:12:11;;;;;;;25.60;8.80;;;;;;;15.59;54.64;100551.02;105497;1277;24049;-65
2022/05/02 09:15:12;;;;;;;20.00;8.30;;;;;;;15.64;54.54;100552.94;105632;1278;25370;-64
2022/05/02 09:18:28;;;;;;;23.90;8.80;;;;;;;15.70;54.58;100550.30;105493;1281;24312;-64
2022/05/02 09:21:09;;;;;;;20.20;8.60;;;;;;;15.83;54.08;100545.16;104995;1281;24243;-64
2022/05/02 09:24:08;;;;;;;20.40;8.70;;;;;;;15.89;53.85;100542.78;105136;1281;22771;-64
2022/05/02 09:27:08;;;;;;;21.40;8.00;;;;;;;16.01;53.66;100543.62;105048;1281;25368;-64
2022/05/02 09:30:19;;;;;;;22.20;7.70;;;;;;;16.09;53.11;100537.43;105109;1281;25665;-64
2022/05/02 09:33:19;;;;;;;20.20;7.70;;;;;;;16.17;52.86;100535.19;105433;1281;25344;-63
2022/05/02 09:36:14;;;;;;;22.20;7.90;;;;;;;16.25;52.90;100532.59;105174;1281;22563;-62
2022/05/02 09:39:04;;;;;;;19.00;8.30;;;;;;;16.31;52.31;100532.80;105442;1281;25517;-62
2022/05/02 09:42:10;;;;;;;20.80;7.10;;;;;;;16.35;52.49;100528.39;104989;1281;22563;-63
2022/05/02 09:51:33;;;;;;;;;;;;;;;16.66;51.62;100518.66;103586;1297;22603;-63
2022/05/02 09:56:37;;;;;;;16.60;5.60;;;;;;;16.75;52.12;100514.65;103604;1296;22582;-62
2022/05/02 09:57:18;;;;;;;16.80;5.50;;;;;;;16.87;51.19;100514.98;103723;1297;24445;-62
2022/05/02 10:01:06;;;;;;;14.20;5.60;;;;;;;16.91;50.58;100511.69;107439;1292;22643;-63
2022/05/02 10:02:50;;;;;;;18.00;5.30;;;;;;;16.94;50.01;100510.21;107470;1292;22406;-63
2022/05/02 10:05:27;;;;;;;14.70;5.20;;;;;;;16.97;49.76;100507.38;107526;1292;22547;-63
2022/05/02 10:08:06;;;;;;;14.10;4.40;;;;;;;17.00;48.74;100507.02;107174;1293;22621;-61
2022/05/02 10:10:47;;;;;;;14.80;5.20;;;;;;;17.04;48.48;100504.02;103941;1293;23566;-62
2022/05/02 10:13:27;;;;;;;15.10;4.80;;;;;;;17.08;47.88;100501.49;103945;1293;24117;-63
2022/05/02 10:16:13;;;;;;;15.90;5.10;;;;;;;17.14;48.06;100501.58;104092;1293;22576;-63
2022/05/02 10:19:03;;;;;;;11.50;4.20;;;;;;;17.30;47.82;100498.17;103845;1293;22726;-63
2022/05/02 10:21:54;;;;;;;16.90;4.80;;;;;;;17.39;46.94;100493.17;105074;1293;22583;-64
2022/05/02 10:24:59;;;;;;;13.80;4.40;;;;;;;17.45;46.62;100485.84;104161;1290;22633;-64
2022/05/02 10:27:41;;;;;;;22.50;5.60;;;;;;;17.45;45.60;100483.90;105250;1282;24472;-65
2022/05/02 10:30:41;;;;;;;17.90;4.60;;;;;;;17.47;45.85;100480.77;105396;1277;23810;-65
2022/05/02 10:33:16;;;;;;;16.50;5.30;;;;;;;17.55;45.99;100473.61;105415;1276;22550;-63
2022/05/02 10:35:52;;;;;;;15.50;5.00;;;;;;;17.68;45.72;100466.45;105657;1276;22560;-63
2022/05/02 10:38:35;;;;;;;18.70;4.90;;;;;;;17.78;45.94;100461.15;105555;1276;24703;-63
2022/05/02 10:41:18;;;;;;;17.40;4.60;;;;;;;17.93;45.42;100463.46;105666;1277;24241;-64
2022/05/02 10:43:58;;;;;;;15.40;4.80;;;;;;;18.05;45.10;100454.80;105559;1277;24417;-64
2022/05/02 10:46:33;;;;;;;15.30;4.80;;;;;;;18.10;44.69;100457.41;105465;1277;24374;-63
2022/05/02 10:49:12;;;;;;;11.00;3.20;;;;;;;18.16;44.50;100448.63;105700;1276;22627;-63
2022/05/02 10:51:55;;;;;;;11.30;4.00;;;;;;;18.28;43.66;100452.58;105640;1276;22574;-63
2022/05/02 10:54:40;;;;;;;11.80;3.80;;;;;;;18.35;42.15;100454.12;106054;1276;24273;-63
2022/05/02 10:57:24;;;;;;;22.60;5.00;;;;;;;18.35;42.03;100450.56;105482;1277;22744;-62
2022/05/02 11:00:01;;;;;;;12.60;3.60;;;;;;;18.32;41.98;100445.05;105386;1277;22563;-63
2022/05/02 11:02:52;;;;;;;13.80;4.20;;;;;;;18.36;42.13;100440.33;105942;1276;26600;-62
2022/05/02 11:05:28;;;;;;;13.70;4.90;;;;;;;18.43;41.89;100442.54;105734;1276;22785;-63
2022/05/02 11:08:10;;;;;;;16.00;4.90;;;;;;;18.48;41.52;100438.70;105611;1277;22642;-63
2022/05/02 11:10:47;;;;;;;15.00;4.00;;;;;;;18.50;41.33;100434.21;105477;1277;22624;-63
2022/05/02 11:13:33;;;;;;;11.10;3.10;;;;;;;18.53;41.60;100432.44;105532;1276;22652;-63
2022/05/02 11:16:16;;;;;;;11.30;3.50;;;;;;;18.64;41.40;100431.91;105574;1276;24494;-63
2022/05/02 11:21:58;;;;;;;12.60;3.90;;;;;;;18.77;40.39;100427.70;105529;1276;22561;-63
2022/05/02 11:24:43;;;;;;;13.40;3.70;;;;;;;18.86;40.48;100425.14;105517;1276;24315;-63
2022/05/02 11:27:29;;;;;;;12.30;3.70;;;;;;;18.91;41.04;100419.77;105557;1275;24263;-63
2022/05/02 11:30:08;;;;;;;32.40;4.80;;;;;;;18.96;40.61;100420.34;105666;1276;23288;-63
2022/05/02 11:32:53;;;;;;;13.60;3.30;;;;;;;19.03;40.54;100408.67;105647;1277;24289;-63
2022/05/02 11:35:29;;;;;;;9.30;3.00;;;;;;;19.13;40.30;100409.31;105573;1276;24437;-63
2022/05/02 11:38:08;;;;;;;9.80;3.10;;;;;;;19.15;39.56;100404.70;105620;1277;22559;-63
2022/05/02 11:40:46;;;;;;;12.80;4.10;;;;;;;19.12;39.77;100402.78;105578;1276;22636;-63
2022/05/02 11:43:22;;;;;;;10.20;3.00;;;;;;;19.12;40.02;100404.54;105552;1277;24353;-62
2022/05/02 11:46:20;;;;;;;12.50;3.80;;;;;;;19.17;39.82;100403.28;105532;1277;25323;-63
2022/05/02 11:49:21;;;;;;;11.60;2.90;;;;;;;19.20;39.23;100398.61;105724;1276;22537;-63
2022/05/02 11:51:53;;;;;;;13.70;3.20;;;;;;;19.24;39.25;100399.42;105834;1276;22697;-63
2022/05/02 11:54:39;;;;;;;12.30;3.70;;;;;;;19.28;39.18;100395.77;105379;1277;22633;-63
2022/05/02 11:57:26;;;;;;;12.90;3.50;;;;;;;19.31;39.25;100396.34;105471;1277;24351;-64
2022/05/02 12:00:06;;;;;;;12.70;3.40;;;;;;;19.33;38.79;100391.60;105489;1276;22683;-63
2022/05/02 12:02:56;;;;;;;9.30;2.80;;;;;;;19.33;39.20;100385.42;105544;1277;22550;-63
2022/05/02 12:05:31;;;;;;;11.70;3.50;;;;;;;19.41;38.59;100386.50;105573;1276;22911;-63
2022/05/02 12:08:04;;;;;;;10.30;2.80;;;;;;;19.45;38.59;100385.00;105500;1276;22560;-63
2022/05/02 12:10:38;;;;;;;7.10;2.50;;;;;;;19.49;38.55;100383.91;105583;1276;23003;-63
2022/05/02 12:13:12;;;;;;;13.30;5.60;;;;;;;19.51;38.31;100382.52;105540;1275;22824;-64
2022/05/02 12:16:03;;;;;;;11.40;3.90;;;;;;;19.51;37.82;100383.69;105724;1276;25424;-62
2022/05/02 12:18:49;;;;;;;12.10;3.10;;;;;;;19.48;37.59;100382.76;107984;1275;23035;-63
2022/05/02 12:21:30;;;;;;;8.50;2.60;;;;;;;19.46;37.30;100381.24;105535;1276;22557;-64
2022/05/02 12:24:06;;;;;;;13.70;3.20;;;;;;;19.43;37.11;100374.08;105431;1277;22537;-63
2022/05/02 12:26:51;;;;;;;12.70;2.60;;;;;;;19.43;37.15;100373.14;105512;1277;25276;-63
2022/05/02 12:29:25;;;;;;;10.00;2.60;;;;;;;19.41;36.90;100373.07;105541;1276;24272;-64
2022/05/02 12:31:59;;;;;;;12.10;3.00;;;;;;;19.36;36.52;100370.78;105649;1276;22557;-64